createdAt,value
2018-06-08T00:01:37.668Z,93.40
2018-06-08T00:04:06.906Z,93.30
2018-06-08T00:06:36.380Z,93.40
2018-06-08T00:09:08.669Z,93.40
2018-06-08T00:11:37.786Z,93.40
2018-06-08T00:14:07.096Z,93.40
2018-06-08T00:16:35.995Z,93.50
2018-06-08T00:19:05.029Z,93.60
2018-06-08T00:21:34.048Z,94.00
2018-06-08T00:24:03.252Z,93.70
2018-06-08T00:26:32.530Z,93.70
2018-06-08T00:29:01.962Z,93.70
2018-06-08T00:31:31.540Z,93.70
2018-06-08T00:34:00.433Z,93.70
2018-06-08T00:36:29.479Z,93.70
2018-06-08T00:38:58.644Z,93.50
2018-06-08T00:41:28.022Z,93.50
2018-06-08T00:43:57.068Z,93.50
2018-06-08T00:46:26.081Z,93.40
2018-06-08T00:48:55.582Z,93.50
2018-06-08T00:51:24.635Z,93.40
2018-06-08T00:53:53.576Z,93.40
2018-06-08T00:56:33.395Z,93.50
2018-06-08T00:59:02.866Z,93.40
2018-06-08T01:01:32.187Z,93.70
2018-06-08T01:04:01.163Z,93.80
2018-06-08T01:06:30.170Z,94.00
2018-06-08T01:08:59.571Z,94.20
2018-06-08T01:11:28.459Z,94.40
2018-06-08T01:13:57.473Z,94.40
2018-06-08T01:16:26.487Z,94.40
2018-06-08T01:18:55.537Z,94.40
2018-06-08T01:21:26.305Z,94.50
2018-06-08T01:23:55.239Z,94.60
2018-06-08T01:26:24.274Z,94.70
2018-06-08T01:28:53.360Z,94.60
2018-06-08T01:31:22.257Z,94.70
2018-06-08T01:33:51.321Z,94.80
2018-06-08T01:36:20.325Z,94.70
2018-06-08T01:38:49.310Z,94.70
2018-06-08T01:41:18.281Z,94.70
2018-06-08T01:43:47.834Z,94.60
2018-06-08T01:46:17.232Z,94.70
2018-06-08T01:48:46.495Z,94.70
2018-06-08T01:51:16.701Z,94.70
2018-06-08T01:53:45.793Z,95.10
2018-06-08T01:56:14.747Z,94.80
2018-06-08T01:58:44.119Z,94.90
2018-06-08T02:01:13.109Z,94.80
2018-06-08T02:03:42.107Z,94.80
2018-06-08T02:06:10.979Z,94.80
2018-06-08T02:08:39.978Z,94.90
2018-06-08T02:11:08.872Z,94.70
2018-06-08T02:13:37.763Z,94.80
2018-06-08T02:16:06.913Z,94.60
2018-06-08T02:18:36.049Z,94.60
2018-06-08T02:21:05.135Z,94.60
2018-06-08T02:23:34.802Z,94.50
2018-06-08T02:26:04.540Z,94.40
2018-06-08T02:28:33.628Z,94.30
2018-06-08T02:31:02.368Z,94.40
2018-06-08T02:33:33.032Z,94.40
2018-06-08T02:36:02.998Z,94.30
2018-06-08T02:38:31.994Z,94.10
2018-06-08T02:41:00.972Z,94.40
2018-06-08T02:43:29.936Z,94.40
2018-06-08T02:45:58.986Z,94.40
2018-06-08T02:48:28.217Z,94.30
2018-06-08T02:50:57.392Z,94.20
2018-06-08T02:56:36.382Z,94.40
2018-06-08T02:59:05.796Z,94.40
2018-06-08T03:01:35.944Z,94.30
2018-06-08T03:04:05.163Z,94.00
2018-06-08T03:06:34.330Z,94.20
2018-06-08T03:09:04.205Z,94.40
2018-06-08T03:11:33.663Z,94.50
2018-06-08T03:14:02.953Z,94.60
2018-06-08T03:16:31.909Z,94.50
2018-06-08T03:19:01.144Z,94.40
2018-06-08T03:21:30.264Z,94.40
2018-06-08T03:23:59.191Z,94.80
2018-06-08T03:27:12.834Z,94.70
2018-06-08T03:29:42.769Z,94.90
2018-06-08T03:32:11.908Z,95.00
2018-06-08T03:34:40.910Z,95.10
2018-06-08T03:37:09.870Z,95.10
2018-06-08T03:39:39.135Z,95.10
2018-06-08T03:42:08.373Z,95.00
2018-06-08T03:44:37.535Z,95.20
2018-06-08T03:47:06.677Z,95.40
2018-06-08T03:49:36.267Z,95.50
2018-06-08T03:52:05.383Z,95.80
2018-06-08T03:54:34.529Z,95.90
2018-06-08T03:57:04.380Z,95.70
2018-06-08T03:59:33.455Z,95.90
2018-06-08T04:02:03.208Z,95.80
2018-06-08T04:04:32.893Z,95.80
2018-06-08T04:07:01.940Z,96.00
2018-06-08T04:09:30.927Z,96.00
2018-06-08T04:12:00.175Z,96.40
2018-06-08T04:14:29.357Z,96.20
2018-06-08T04:16:58.967Z,96.10
2018-06-08T04:19:29.302Z,96.10
2018-06-08T04:21:58.821Z,96.10
2018-06-08T04:24:28.105Z,96.10
2018-06-08T04:26:57.249Z,96.10
2018-06-08T04:29:26.871Z,96.00
2018-06-08T04:31:56.204Z,96.10
2018-06-08T04:34:25.387Z,96.10
2018-06-08T04:36:54.411Z,96.10
2018-06-08T04:39:24.064Z,96.10
2018-06-08T04:41:53.091Z,96.00
2018-06-08T04:44:22.302Z,96.00
2018-06-08T04:46:51.444Z,96.00
2018-06-08T04:49:20.518Z,96.10
2018-06-08T04:51:49.916Z,96.00
2018-06-08T04:54:19.029Z,96.10
2018-06-08T04:56:49.128Z,96.00
2018-06-08T04:59:18.797Z,96.00
2018-06-08T05:01:48.103Z,96.00
2018-06-08T05:04:17.409Z,96.00
2018-06-08T05:06:46.675Z,95.80
2018-06-08T05:09:16.161Z,95.90
2018-06-08T05:11:46.531Z,96.10
2018-06-08T05:14:16.217Z,96.10
2018-06-08T05:16:45.758Z,96.00
2018-06-08T05:19:15.079Z,95.80
2018-06-08T05:21:44.040Z,95.90
2018-06-08T05:24:13.170Z,95.90
2018-06-08T05:26:42.393Z,95.80
2018-06-08T05:29:12.233Z,95.70
2018-06-08T05:31:42.059Z,95.80
2018-06-08T05:34:11.848Z,95.80
2018-06-08T05:36:41.305Z,95.60
2018-06-08T05:39:10.337Z,95.50
2018-06-08T05:41:39.401Z,95.60
2018-06-08T05:44:08.832Z,95.60
2018-06-08T05:46:38.319Z,95.20
2018-06-08T05:49:08.422Z,95.20
2018-06-08T05:51:37.528Z,95.10
2018-06-08T05:54:06.524Z,94.90
2018-06-08T05:56:35.669Z,94.80
2018-06-08T05:59:04.926Z,94.80
2018-06-08T06:01:35.102Z,94.90
2018-06-08T06:04:04.467Z,94.50
2018-06-08T06:06:33.537Z,94.60
2018-06-08T06:09:02.787Z,94.60
2018-06-08T06:11:31.798Z,94.50
2018-06-08T06:16:30.227Z,94.50
2018-06-08T06:18:59.601Z,94.50
2018-06-08T06:21:28.730Z,94.10
2018-06-08T06:26:26.945Z,93.80
2018-06-08T06:28:56.398Z,93.70
2018-06-08T06:31:25.803Z,93.60
2018-06-08T06:33:55.090Z,93.50
2018-06-08T06:36:24.674Z,93.70
2018-06-08T06:38:54.154Z,93.10
2018-06-08T06:41:23.964Z,92.90
2018-06-08T06:43:53.178Z,92.70
2018-06-08T06:46:23.978Z,92.80
2018-06-08T06:48:53.408Z,92.60
2018-06-08T06:51:23.276Z,92.70
2018-06-08T06:53:53.205Z,92.70
2018-06-08T06:56:22.595Z,92.70
2018-06-08T06:58:52.062Z,92.80
2018-06-08T07:01:21.319Z,92.40
2018-06-08T07:03:50.702Z,91.90
2018-06-08T07:06:20.891Z,92.00
2018-06-08T07:08:51.145Z,91.80
2018-06-08T07:11:20.625Z,91.80
2018-06-08T07:13:49.959Z,91.50
2018-06-08T07:16:19.259Z,91.60
2018-06-08T07:18:48.565Z,91.20
2018-06-08T07:21:18.568Z,91.00
2018-06-08T07:23:48.411Z,90.70
2018-06-08T07:26:18.401Z,90.20
2018-06-08T07:28:47.561Z,90.00
2018-06-08T07:31:16.873Z,89.70
2018-06-08T07:33:46.131Z,89.10
2018-06-08T07:36:15.369Z,88.50
2018-06-08T07:38:44.747Z,89.00
2018-06-08T07:41:13.936Z,88.40
2018-06-08T07:43:43.229Z,88.30
2018-06-08T07:46:12.391Z,88.40
2018-06-08T07:48:42.378Z,87.40
2018-06-08T07:51:12.235Z,87.50
2018-06-08T07:53:41.843Z,87.10
2018-06-08T07:56:10.924Z,86.90
2018-06-08T07:58:40.398Z,86.20
2018-06-08T08:01:10.234Z,86.00
2018-06-08T08:03:39.362Z,85.70
2018-06-08T08:06:09.533Z,85.20
2018-06-08T08:08:38.831Z,84.80
2018-06-08T08:11:07.903Z,84.80
2018-06-08T08:13:37.807Z,85.40
2018-06-08T08:16:07.023Z,85.20
2018-06-08T08:18:36.331Z,84.70
2018-06-08T08:21:05.510Z,84.50
2018-06-08T08:23:35.057Z,84.40
2018-06-08T08:26:04.415Z,84.60
2018-06-08T08:28:33.593Z,82.90
2018-06-08T08:31:02.916Z,82.30
2018-06-08T08:33:32.763Z,81.20
2018-06-08T08:36:03.421Z,81.80
2018-06-08T08:38:32.395Z,80.40
2018-06-08T08:43:30.664Z,80.00
2018-06-08T08:46:00.319Z,78.20
2018-06-08T08:48:29.600Z,78.00
2018-06-08T08:50:58.763Z,78.90
2018-06-08T08:53:27.762Z,77.90
2018-06-08T08:55:56.931Z,77.40
2018-06-08T08:58:26.512Z,76.60
2018-06-08T09:00:56.307Z,74.80
2018-06-08T09:03:28.345Z,74.00
2018-06-08T09:05:57.796Z,75.60
2018-06-08T09:08:27.384Z,75.60
2018-06-08T09:10:56.959Z,74.60
2018-06-08T09:13:26.537Z,73.50
2018-06-08T09:15:55.817Z,74.00
2018-06-08T09:18:25.663Z,73.50
2018-06-08T09:20:55.309Z,73.90
2018-06-08T09:23:25.345Z,72.00
2018-06-08T09:25:54.529Z,70.20
2018-06-08T09:28:23.663Z,70.10
2018-06-08T09:30:53.230Z,69.40
2018-06-08T09:33:22.901Z,70.40
2018-06-08T09:35:52.481Z,68.00
2018-06-08T09:38:23.551Z,67.50
2018-06-08T09:40:53.135Z,67.90
2018-06-08T09:43:22.620Z,69.00
2018-06-08T09:45:52.056Z,68.80
2018-06-08T09:48:22.518Z,68.50
2018-06-08T09:50:52.458Z,67.90
2018-06-08T09:53:21.730Z,67.20
2018-06-08T09:55:50.793Z,68.40
2018-06-08T09:58:20.044Z,65.60
2018-06-08T10:00:49.409Z,64.50
2018-06-08T10:03:18.674Z,64.00
2018-06-08T10:05:47.996Z,64.20
2018-06-08T10:08:17.441Z,63.70
2018-06-08T10:10:46.761Z,65.70
2018-06-08T10:13:16.013Z,64.90
2018-06-08T10:18:15.049Z,61.90
2018-06-08T10:20:44.346Z,63.70
2018-06-08T10:23:14.080Z,61.80
2018-06-08T10:25:43.603Z,62.40
2018-06-08T10:28:13.445Z,60.90
2018-06-08T10:30:43.229Z,61.50
2018-06-08T10:33:12.551Z,62.50
2018-06-08T10:35:42.183Z,63.50
2018-06-08T10:38:11.840Z,63.90
2018-06-08T10:40:41.009Z,64.20
2018-06-08T10:43:10.543Z,62.50
2018-06-08T10:45:39.982Z,64.40
2018-06-08T10:48:09.174Z,64.80
2018-06-08T10:50:38.518Z,62.90
2018-06-08T10:53:08.245Z,62.30
2018-06-08T10:55:37.958Z,60.90
2018-06-08T10:58:07.146Z,59.80
2018-06-08T11:00:36.786Z,58.00
2018-06-08T11:03:06.462Z,58.00
2018-06-08T11:05:35.700Z,57.60
2018-06-08T11:08:04.686Z,57.50
2018-06-08T11:10:37.530Z,57.10
2018-06-08T11:13:06.755Z,54.20
2018-06-08T11:15:35.862Z,55.60
2018-06-08T11:18:05.377Z,53.80
2018-06-08T11:20:35.450Z,53.30
2018-06-08T11:23:05.264Z,53.60
2018-06-08T11:25:34.463Z,53.20
2018-06-08T11:28:04.258Z,55.10
2018-06-08T11:30:33.554Z,53.40
2018-06-08T11:33:02.767Z,52.20
2018-06-08T11:35:32.373Z,53.60
2018-06-08T11:38:02.653Z,52.90
2018-06-08T11:40:32.341Z,53.30
2018-06-08T11:43:02.065Z,53.40
2018-06-08T11:45:31.837Z,52.80
2018-06-08T11:48:01.257Z,53.20
2018-06-08T11:50:31.011Z,52.60
2018-06-08T11:53:00.480Z,53.20
2018-06-08T11:55:29.877Z,53.60
2018-06-08T12:00:27.908Z,53.70
2018-06-08T12:02:57.523Z,51.90
2018-06-08T12:05:27.223Z,52.20
2018-06-08T12:07:56.497Z,52.30
2018-06-08T12:10:25.654Z,52.20
2018-06-08T12:12:56.061Z,52.40
2018-06-08T12:15:25.341Z,52.40
2018-06-08T12:17:54.830Z,52.40
2018-06-08T12:20:24.305Z,51.70
2018-06-08T12:22:53.496Z,51.70
2018-06-08T12:25:22.793Z,52.90
2018-06-08T12:27:52.177Z,51.80
2018-06-08T12:30:22.617Z,51.30
2018-06-08T12:32:52.331Z,51.90
2018-06-08T12:35:21.218Z,50.10
2018-06-08T12:37:50.101Z,50.60
2018-06-08T12:40:18.870Z,51.30
2018-06-08T12:42:47.641Z,50.10
2018-06-08T12:45:16.219Z,49.60
2018-06-08T12:47:44.953Z,49.70
2018-06-08T12:50:13.693Z,50.90
2018-06-08T12:52:42.435Z,50.50
2018-06-08T12:55:11.293Z,49.60
2018-06-08T12:57:40.252Z,49.40
2018-06-08T13:00:09.381Z,48.70
2018-06-08T13:02:38.583Z,47.90
2018-06-08T13:05:07.843Z,48.80
2018-06-08T13:07:37.165Z,49.30
2018-06-08T13:10:07.013Z,47.90
2018-06-08T13:12:36.661Z,47.40
2018-06-08T13:15:06.739Z,48.00
2018-06-08T13:17:36.437Z,49.00
2018-06-08T13:20:06.479Z,47.40
2018-06-08T13:22:35.915Z,48.10
2018-06-08T13:25:05.956Z,47.60
2018-06-08T13:27:35.177Z,48.60
2018-06-08T13:30:04.341Z,49.10
2018-06-08T13:32:33.655Z,48.30
2018-06-08T13:35:03.221Z,49.60
2018-06-08T13:37:33.062Z,49.20
2018-06-08T13:40:02.719Z,49.10
2018-06-08T13:45:00.800Z,48.80
2018-06-08T13:47:29.874Z,48.50
2018-06-08T13:49:59.282Z,49.40
2018-06-08T13:52:28.419Z,49.50
2018-06-08T13:54:57.970Z,50.60
2018-06-08T13:57:27.651Z,51.00
2018-06-08T13:59:57.320Z,50.90
2018-06-08T14:02:26.488Z,48.30
2018-06-08T14:04:55.916Z,48.70
2018-06-08T14:07:25.331Z,49.10
2018-06-08T14:09:54.536Z,48.70
2018-06-08T14:12:23.731Z,48.90
2018-06-08T14:14:53.354Z,49.80
2018-06-08T14:17:22.746Z,49.40
2018-06-08T14:19:52.644Z,49.40
2018-06-08T14:22:21.970Z,50.00
2018-06-08T14:24:51.906Z,50.20
2018-06-08T14:27:20.927Z,49.50
2018-06-08T14:29:49.980Z,49.10
2018-06-08T14:32:19.329Z,49.80
2018-06-08T14:34:48.484Z,50.70
2018-06-08T14:37:19.133Z,51.20
2018-06-08T14:39:48.823Z,51.30
2018-06-08T14:42:18.566Z,51.10
2018-06-08T14:44:48.198Z,52.10
2018-06-08T14:47:17.869Z,52.00
2018-06-08T14:49:47.068Z,52.80
2018-06-08T14:52:16.460Z,52.90
2018-06-08T14:54:45.678Z,52.90
2018-06-08T14:57:14.829Z,53.10
2018-06-08T14:59:43.912Z,54.20
2018-06-08T15:02:13.171Z,54.00
2018-06-08T15:04:42.236Z,54.70
2018-06-08T15:07:11.353Z,54.30
2018-06-08T15:09:40.500Z,54.60
2018-06-08T15:12:09.883Z,53.90
2018-06-08T15:14:40.461Z,54.10
2018-06-08T15:17:09.334Z,54.00
2018-06-08T15:19:38.039Z,53.40
2018-06-08T15:22:06.643Z,54.30
2018-06-08T15:24:35.395Z,54.50
2018-06-08T15:27:04.188Z,54.30
2018-06-08T15:29:33.185Z,55.10
2018-06-08T15:32:02.061Z,54.70
2018-06-08T15:34:30.794Z,55.50
2018-06-08T15:36:59.399Z,54.60
2018-06-08T15:39:27.968Z,54.80
2018-06-08T15:41:56.599Z,54.50
2018-06-08T15:44:25.155Z,55.10
2018-06-08T15:46:53.755Z,55.30
2018-06-08T15:49:22.323Z,55.70
2018-06-08T15:51:50.867Z,55.00
2018-06-08T15:54:19.547Z,54.40
2018-06-08T15:56:48.177Z,55.00
2018-06-08T15:59:16.760Z,55.40
2018-06-08T16:01:45.372Z,56.10
2018-06-08T16:04:13.947Z,57.30
2018-06-08T16:06:42.549Z,56.40
2018-06-08T16:09:11.177Z,56.40
2018-06-08T16:11:39.755Z,57.30
2018-06-08T16:14:08.355Z,57.80
2018-06-08T16:16:37.613Z,57.40
2018-06-08T16:19:06.813Z,58.20
2018-06-08T16:21:40.743Z,58.60
2018-06-08T16:24:10.168Z,58.70
2018-06-08T16:26:39.493Z,59.00
2018-06-08T16:29:08.480Z,59.20
2018-06-08T16:31:38.705Z,58.80
2018-06-08T16:34:08.879Z,59.10
2018-06-08T16:36:38.320Z,59.70
2018-06-08T16:39:08.487Z,59.70
2018-06-08T16:41:38.412Z,59.70
2018-06-08T16:44:08.039Z,60.40
2018-06-08T16:46:37.763Z,61.00
2018-06-08T16:49:06.855Z,61.10
2018-06-08T16:51:36.203Z,62.40
2018-06-08T16:54:05.177Z,61.80
2018-06-08T16:56:34.569Z,62.10
2018-06-08T16:59:03.485Z,62.20
2018-06-08T17:01:32.626Z,62.80
2018-06-08T17:04:01.955Z,63.10
2018-06-08T17:06:30.924Z,62.90
2018-06-08T17:09:00.112Z,63.50
2018-06-08T17:11:29.351Z,64.10
2018-06-08T17:13:59.015Z,62.90
2018-06-08T17:16:28.309Z,63.00
2018-06-08T17:18:57.782Z,63.30
2018-06-08T17:21:27.000Z,63.30
2018-06-08T17:23:56.650Z,63.60
2018-06-08T17:26:26.036Z,64.10
2018-06-08T17:28:55.164Z,64.10
2018-06-08T17:31:24.336Z,64.20
2018-06-08T17:33:53.324Z,64.50
2018-06-08T17:36:23.298Z,64.80
2018-06-08T17:38:52.755Z,65.30
2018-06-08T17:41:22.019Z,65.70
2018-06-08T17:43:51.503Z,66.30
2018-06-08T17:46:20.820Z,66.20
2018-06-08T17:48:49.804Z,66.40
2018-06-08T17:51:18.937Z,67.20
2018-06-08T17:53:47.879Z,66.40
2018-06-08T17:56:16.797Z,67.20
2018-06-08T17:58:45.698Z,67.10
2018-06-08T18:03:43.785Z,67.50
2018-06-08T18:06:13.145Z,67.70
2018-06-08T18:08:42.075Z,67.20
2018-06-08T18:11:11.121Z,68.00
2018-06-08T18:13:40.180Z,68.30
2018-06-08T18:16:15.714Z,68.30
2018-06-08T18:18:46.275Z,68.30
2018-06-08T18:21:18.392Z,69.00
2018-06-08T18:23:47.739Z,69.50
2018-06-08T18:26:16.986Z,70.90
2018-06-08T18:28:46.669Z,71.80
2018-06-08T18:31:15.858Z,72.40
2018-06-08T18:33:46.732Z,73.20
2018-06-08T18:36:16.183Z,73.80
2018-06-08T18:38:45.481Z,74.30
2018-06-08T18:41:14.781Z,74.90
2018-06-08T18:43:47.183Z,74.90
2018-06-08T18:46:17.021Z,75.00
2018-06-08T18:48:46.486Z,76.20
2018-06-08T18:51:15.750Z,76.30
2018-06-08T18:53:44.931Z,76.80
2018-06-08T18:56:14.405Z,76.30
2018-06-08T18:58:45.533Z,77.50
2018-06-08T19:01:14.812Z,77.40
2018-06-08T19:03:46.585Z,77.90
2018-06-08T19:06:16.061Z,78.70
2018-06-08T19:08:45.955Z,78.70
2018-06-08T19:11:16.290Z,78.50
2018-06-08T19:13:45.643Z,79.20
2018-06-08T19:16:15.304Z,80.10
2018-06-08T19:18:45.016Z,80.30
2018-06-08T19:21:14.347Z,80.10
2018-06-08T19:23:44.241Z,80.10
2018-06-08T19:26:14.064Z,80.30
2018-06-08T19:28:43.482Z,81.10
2018-06-08T19:31:12.685Z,80.20
2018-06-08T19:33:41.700Z,80.60
2018-06-08T19:36:10.787Z,81.10
2018-06-08T19:38:40.009Z,81.40
2018-06-08T19:41:10.288Z,81.40
2018-06-08T19:43:39.279Z,81.80
2018-06-08T19:46:08.269Z,81.80
2018-06-08T19:48:37.299Z,81.70
2018-06-08T19:51:06.485Z,81.10
2018-06-08T19:53:35.485Z,81.40
2018-06-08T19:56:04.581Z,82.00
2018-06-08T19:58:34.219Z,81.60
2018-06-08T20:01:03.075Z,82.00
2018-06-08T20:03:31.851Z,82.40
2018-06-08T20:08:30.019Z,82.40
2018-06-08T20:10:58.860Z,82.40
2018-06-08T20:13:27.831Z,82.70
2018-06-08T20:15:57.414Z,82.80
2018-06-08T20:18:26.186Z,82.90
2018-06-08T20:20:54.978Z,83.10
2018-06-08T20:23:23.710Z,83.20
2018-06-08T20:25:52.497Z,83.40
2018-06-08T20:28:21.382Z,83.80
2018-06-08T20:30:50.548Z,84.30
2018-06-08T20:33:19.464Z,84.20
2018-06-08T20:35:48.609Z,84.10
2018-06-08T20:38:17.666Z,84.20
2018-06-08T20:40:46.752Z,85.20
2018-06-08T20:43:15.819Z,85.00
2018-06-08T20:45:44.685Z,84.60
2018-06-08T20:48:13.672Z,84.40
2018-06-08T20:50:42.973Z,85.30
2018-06-08T20:53:11.901Z,85.10
2018-06-08T20:55:40.884Z,85.70
2018-06-08T20:58:19.802Z,85.10
2018-06-08T21:00:48.757Z,85.20
2018-06-08T21:03:17.916Z,85.40
2018-06-08T21:05:46.751Z,85.20
2018-06-08T21:08:15.758Z,85.30
2018-06-08T21:10:45.004Z,85.10
2018-06-08T21:13:14.128Z,85.30
2018-06-08T21:15:43.145Z,85.50
2018-06-08T21:18:12.471Z,85.30
2018-06-08T21:23:10.243Z,85.30
2018-06-08T21:25:39.595Z,85.10
2018-06-08T21:28:09.063Z,85.70
2018-06-08T21:30:38.030Z,85.90
2018-06-08T21:33:07.152Z,85.90
2018-06-08T21:35:36.399Z,86.20
2018-06-08T21:38:05.570Z,86.40
2018-06-08T21:40:34.513Z,85.70
2018-06-08T21:43:03.935Z,85.30
2018-06-08T21:45:33.445Z,86.00
2018-06-08T21:48:02.464Z,85.70
2018-06-08T21:50:31.414Z,85.40
2018-06-08T21:53:00.581Z,85.30
2018-06-08T21:55:29.700Z,85.40
2018-06-08T21:57:58.839Z,84.90
2018-06-08T22:00:30.056Z,85.00
2018-06-08T22:02:59.402Z,85.00
2018-06-08T22:05:28.927Z,85.00
2018-06-08T22:07:58.025Z,84.90
2018-06-08T22:10:27.260Z,85.30
2018-06-08T22:12:56.827Z,85.10
2018-06-08T22:15:26.387Z,85.40
2018-06-08T22:17:55.899Z,85.50
2018-06-08T22:20:25.033Z,86.10
2018-06-08T22:22:54.703Z,87.20
2018-06-08T22:25:23.745Z,88.90
2018-06-08T22:27:53.049Z,89.80
2018-06-08T22:30:22.202Z,90.90
2018-06-08T22:32:52.815Z,90.90
2018-06-08T22:35:21.807Z,91.20
2018-06-08T22:37:50.893Z,91.60
2018-06-08T22:40:20.715Z,92.10
2018-06-08T22:42:49.736Z,92.40
2018-06-08T22:47:47.591Z,92.50
2018-06-08T22:50:17.914Z,92.60
2018-06-08T22:52:46.839Z,92.20
2018-06-08T22:55:16.194Z,92.30
2018-06-08T22:57:45.081Z,92.40
2018-06-08T23:00:18.347Z,92.80
2018-06-08T23:02:47.444Z,92.90
2018-06-08T23:05:16.577Z,90.40
2018-06-08T23:07:45.624Z,87.10
2018-06-08T23:10:14.639Z,85.90
2018-06-08T23:12:43.693Z,86.10
2018-06-08T23:15:12.845Z,87.60
2018-06-08T23:17:41.913Z,87.90
2018-06-08T23:20:10.835Z,88.20
2018-06-08T23:22:39.993Z,87.50
2018-06-08T23:27:37.854Z,88.40
2018-06-08T23:30:07.159Z,89.70
2018-06-08T23:32:36.065Z,90.20
2018-06-08T23:35:05.635Z,90.00
2018-06-08T23:37:35.207Z,90.30
2018-06-08T23:40:04.844Z,90.60
2018-06-08T23:42:34.170Z,90.80
2018-06-08T23:45:03.661Z,91.00
2018-06-08T23:47:33.049Z,90.70
2018-06-08T23:50:02.233Z,91.10
2018-06-08T23:52:32.096Z,90.70
2018-06-08T23:55:01.183Z,90.30
2018-06-08T23:57:30.372Z,90.60
2018-06-08T23:59:59.825Z,90.30
